KROX/ROX METAR and TAF weather

Enter ICAO airport designator
Station Type Date Time Source
KROX METAR 2024/04/18 08:35 UTC NOAA

KROX 180835Z AUTO 23012KT 10SM CLR 03/00 A2978 RMK AO2


Station Type Date Time Source
KROX Decoded METAR 2024/04/18 08:35 UTC NOAA

Roseau, Roseau Municipal Airport/Rudy Billberg Field, MN, United States (KROX) 48-51N 095-42W
Apr 18, 2024 - 04:35 AM EDT / 2024.04.18 0835 UTC
Wind: from the SW (230 degrees) at 14 MPH (12 KT):0
Visibility: 10 mile(s):0
Sky conditions: clear
Temperature: 37 F (3 C)
Dew Point: 32 F (0 C)
Relative Humidity: 80%
Pressure (altimeter): 29.78 in. Hg (1008 hPa)
ob: KROX 180835Z AUTO 23012KT 10SM CLR 03/00 A2978 RMK AO2
cycle: 8

Station Type Date Time Source
KROX TAF UTC NOAA

Error!

Example: see airport list